createdAt,value
2018-10-09T00:00:58.600Z,960.05
2018-10-09T00:01:58.590Z,960.08
2018-10-09T00:02:58.580Z,960.06
2018-10-09T00:03:58.569Z,960.08
2018-10-09T00:04:58.559Z,960.07
2018-10-09T00:05:58.550Z,960.07
2018-10-09T00:06:58.544Z,960.06
2018-10-09T00:07:58.529Z,960.02
2018-10-09T00:08:58.519Z,960.05
2018-10-09T00:09:58.510Z,960.05
2018-10-09T00:10:58.500Z,960
2018-10-09T00:11:58.557Z,960.01
2018-10-09T00:12:58.483Z,960
2018-10-09T00:13:58.469Z,959.93
2018-10-09T00:14:58.463Z,960.01
2018-10-09T00:15:58.451Z,959.98
2018-10-09T00:16:58.445Z,959.97
2018-10-09T00:17:58.429Z,959.97
2018-10-09T00:18:58.419Z,959.9
2018-10-09T00:19:58.412Z,959.92
2018-10-09T00:20:58.404Z,959.96
2018-10-09T00:21:58.402Z,959.96
2018-10-09T00:22:58.379Z,959.94
2018-10-09T00:23:58.369Z,959.95
2018-10-09T00:24:58.361Z,959.98
2018-10-09T00:25:58.368Z,959.98
2018-10-09T00:26:58.339Z,959.99
2018-10-09T00:27:58.329Z,959.98
2018-10-09T00:28:58.318Z,959.98
2018-10-09T00:29:58.312Z,959.96
2018-10-09T00:30:58.298Z,959.98
2018-10-09T00:31:58.293Z,959.95
2018-10-09T00:32:58.302Z,959.93
2018-10-09T00:33:58.268Z,959.95
2018-10-09T00:34:58.259Z,959.93
2018-10-09T00:35:58.248Z,959.91
2018-10-09T00:36:58.238Z,959.94
2018-10-09T00:37:58.228Z,959.91
2018-10-09T00:38:58.218Z,959.9
2018-10-09T00:39:58.216Z,959.92
2018-10-09T00:40:58.198Z,959.91
2018-10-09T00:41:58.187Z,959.87
2018-10-09T00:42:58.178Z,959.83
2018-10-09T00:43:58.166Z,959.85
2018-10-09T00:44:58.157Z,959.78
2018-10-09T00:45:58.147Z,959.8
2018-10-09T00:46:58.142Z,959.86
2018-10-09T00:47:58.125Z,959.82
2018-10-09T00:48:58.115Z,959.85
2018-10-09T00:49:58.107Z,959.87
2018-10-09T00:50:58.097Z,959.79
2018-10-09T00:51:58.090Z,959.76
2018-10-09T00:52:58.075Z,959.82
2018-10-09T00:53:58.068Z,959.8
2018-10-09T00:54:58.056Z,959.82
2018-10-09T00:55:58.044Z,959.83
2018-10-09T00:56:58.034Z,959.81
2018-10-09T00:57:58.024Z,959.81
2018-10-09T00:58:58.013Z,959.79
2018-10-09T00:59:58.003Z,959.75
2018-10-09T01:00:57.993Z,959.76
2018-10-09T01:01:57.987Z,959.72
2018-10-09T01:02:57.974Z,959.73
2018-10-09T01:03:57.962Z,959.74
2018-10-09T01:04:57.953Z,959.71
2018-10-09T01:05:57.946Z,959.72
2018-10-09T01:06:57.933Z,959.73
2018-10-09T01:07:57.922Z,959.73
2018-10-09T01:08:57.968Z,959.72
2018-10-09T01:09:57.905Z,959.75
2018-10-09T01:10:57.892Z,959.76
2018-10-09T01:11:57.881Z,959.72
2018-10-09T01:12:57.869Z,959.74
2018-10-09T01:13:57.861Z,959.74
2018-10-09T01:14:57.850Z,959.77
2018-10-09T01:15:57.843Z,959.74
2018-10-09T01:16:57.829Z,959.8
2018-10-09T01:17:57.820Z,959.8
2018-10-09T01:18:57.811Z,959.78
2018-10-09T01:19:57.798Z,959.76
2018-10-09T01:20:57.791Z,959.79
2018-10-09T01:21:57.778Z,959.76
2018-10-09T01:22:57.774Z,959.73
2018-10-09T01:23:57.756Z,959.78
2018-10-09T01:24:57.748Z,959.73
2018-10-09T01:25:57.738Z,959.71
2018-10-09T01:26:57.726Z,959.75
2018-10-09T01:27:57.718Z,959.75
2018-10-09T01:28:57.707Z,959.75
2018-10-09T01:29:57.697Z,959.76
2018-10-09T01:30:57.685Z,959.82
2018-10-09T01:31:57.675Z,959.77
2018-10-09T01:32:57.666Z,959.76
2018-10-09T01:33:57.656Z,959.82
2018-10-09T01:34:57.644Z,959.82
2018-10-09T01:35:57.635Z,959.85
2018-10-09T01:36:57.624Z,959.88
2018-10-09T01:37:57.617Z,959.85
2018-10-09T01:38:57.604Z,959.85
2018-10-09T01:39:57.594Z,959.9
2018-10-09T01:40:57.584Z,959.92
2018-10-09T01:41:57.573Z,959.9
2018-10-09T01:42:57.567Z,959.86
2018-10-09T01:43:57.553Z,959.87
2018-10-09T01:44:57.543Z,959.87
2018-10-09T01:45:57.534Z,959.88
2018-10-09T01:46:57.524Z,959.91
2018-10-09T01:47:57.514Z,959.89
2018-10-09T01:48:57.503Z,959.91
2018-10-09T01:49:57.493Z,959.91
2018-10-09T01:50:57.481Z,959.89
2018-10-09T01:51:57.470Z,959.91
2018-10-09T01:52:57.460Z,959.89
2018-10-09T01:53:57.450Z,959.9
2018-10-09T01:54:57.438Z,959.91
2018-10-09T01:55:57.429Z,959.93
2018-10-09T01:56:57.418Z,959.92
2018-10-09T01:57:57.408Z,959.94
2018-10-09T01:58:57.397Z,959.96
2018-10-09T01:59:57.388Z,959.93
2018-10-09T02:00:57.376Z,959.94
2018-10-09T02:01:57.366Z,959.95
2018-10-09T02:02:57.355Z,959.91
2018-10-09T02:03:57.345Z,959.87
2018-10-09T02:04:57.338Z,959.94
2018-10-09T02:05:57.325Z,959.88
2018-10-09T02:06:57.314Z,959.89
2018-10-09T02:07:57.303Z,959.92
2018-10-09T02:08:57.293Z,959.9
2018-10-09T02:09:57.283Z,959.89
2018-10-09T02:10:57.271Z,959.87
2018-10-09T02:11:57.262Z,959.9
2018-10-09T02:12:57.251Z,959.85
2018-10-09T02:13:57.240Z,959.87
2018-10-09T02:14:57.232Z,959.84
2018-10-09T02:15:57.220Z,959.88
2018-10-09T02:16:57.210Z,959.82
2018-10-09T02:17:57.200Z,959.83
2018-10-09T02:18:57.187Z,959.78
2018-10-09T02:19:57.179Z,959.75
2018-10-09T02:20:57.168Z,959.75
2018-10-09T02:21:57.158Z,959.76
2018-10-09T02:22:57.146Z,959.75
2018-10-09T02:23:57.136Z,959.78
2018-10-09T02:24:57.126Z,959.8
2018-10-09T02:25:57.115Z,959.78
2018-10-09T02:26:57.109Z,959.82
2018-10-09T02:27:57.096Z,959.82
2018-10-09T02:28:57.089Z,959.81
2018-10-09T02:29:57.072Z,959.81
2018-10-09T02:30:57.063Z,959.84
2018-10-09T02:31:57.052Z,959.86
2018-10-09T02:32:57.047Z,959.91
2018-10-09T02:33:57.030Z,959.95
2018-10-09T02:34:57.020Z,959.96
2018-10-09T02:35:57.010Z,959.99
2018-10-09T02:36:56.999Z,960.01
2018-10-09T02:37:56.988Z,959.98
2018-10-09T02:38:56.978Z,960
2018-10-09T02:39:56.970Z,959.97
2018-10-09T02:40:56.957Z,959.98
2018-10-09T02:41:56.946Z,960.01
2018-10-09T02:42:56.965Z,960.02
2018-10-09T02:43:56.934Z,960.01
2018-10-09T02:44:56.917Z,960
2018-10-09T02:45:56.904Z,960.01
2018-10-09T02:46:56.894Z,960.01
2018-10-09T02:47:56.891Z,960.03
2018-10-09T02:48:56.872Z,960.05
2018-10-09T02:49:56.865Z,960.04
2018-10-09T02:50:56.849Z,960.04
2018-10-09T02:51:56.839Z,960.02
2018-10-09T02:52:56.829Z,960.05
2018-10-09T02:53:56.818Z,960.06
2018-10-09T02:54:56.807Z,960.05
2018-10-09T02:55:56.796Z,960.03
2018-10-09T02:56:56.786Z,960.05
2018-10-09T02:57:56.777Z,960.06
2018-10-09T02:58:56.764Z,960.05
2018-10-09T02:59:56.754Z,960.12
2018-10-09T03:00:56.743Z,960.03
2018-10-09T03:01:56.734Z,960.05
2018-10-09T03:02:56.720Z,960.01
2018-10-09T03:03:56.722Z,960.02
2018-10-09T03:04:56.700Z,960.03
2018-10-09T03:05:56.688Z,959.99
2018-10-09T03:06:56.677Z,959.98
2018-10-09T03:07:56.670Z,959.98
2018-10-09T03:08:56.657Z,959.94
2018-10-09T03:09:56.645Z,959.96
2018-10-09T03:10:56.638Z,959.93
2018-10-09T03:11:56.624Z,959.9
2018-10-09T03:12:56.613Z,959.85
2018-10-09T03:13:56.603Z,959.87
2018-10-09T03:14:56.595Z,959.88
2018-10-09T03:15:56.581Z,959.84
2018-10-09T03:16:56.577Z,959.86
2018-10-09T03:17:56.559Z,959.86
2018-10-09T03:18:56.548Z,959.85
2018-10-09T03:19:56.541Z,959.87
2018-10-09T03:20:56.529Z,959.82
2018-10-09T03:21:56.515Z,959.86
2018-10-09T03:22:56.510Z,959.86
2018-10-09T03:23:56.493Z,959.83
2018-10-09T03:24:56.483Z,959.85
2018-10-09T03:25:56.473Z,959.85
2018-10-09T03:26:56.462Z,959.84
2018-10-09T03:27:56.450Z,959.84
2018-10-09T03:28:56.439Z,959.9
2018-10-09T03:29:56.429Z,959.83
2018-10-09T03:30:56.420Z,959.81
2018-10-09T03:31:56.408Z,959.81
2018-10-09T03:32:56.396Z,959.75
2018-10-09T03:33:56.386Z,959.78
2018-10-09T03:34:56.375Z,959.76
2018-10-09T03:35:56.365Z,959.76
2018-10-09T03:36:56.353Z,959.73
2018-10-09T03:37:56.348Z,959.74
2018-10-09T03:38:56.335Z,959.73
2018-10-09T03:39:56.321Z,959.74
2018-10-09T03:40:56.310Z,959.73
2018-10-09T03:41:56.302Z,959.74
2018-10-09T03:42:56.289Z,959.74
2018-10-09T03:43:56.277Z,959.74
2018-10-09T03:44:56.267Z,959.74
2018-10-09T03:45:56.258Z,959.77
2018-10-09T03:46:56.244Z,959.71
2018-10-09T03:47:56.234Z,959.73
2018-10-09T03:48:56.223Z,959.75
2018-10-09T03:49:56.212Z,959.77
2018-10-09T03:50:56.203Z,959.76
2018-10-09T03:51:56.192Z,959.73
2018-10-09T03:52:56.181Z,959.78
2018-10-09T03:53:56.169Z,959.78
2018-10-09T03:54:56.159Z,959.77
2018-10-09T03:55:56.148Z,959.75
2018-10-09T03:56:56.141Z,959.74
2018-10-09T03:57:56.127Z,959.75
2018-10-09T03:58:56.116Z,959.78
2018-10-09T03:59:56.105Z,959.74
2018-10-09T04:00:56.093Z,959.74
2018-10-09T04:01:56.083Z,959.79
2018-10-09T04:02:56.073Z,959.79
2018-10-09T04:03:56.062Z,959.8
2018-10-09T04:04:56.050Z,959.8
2018-10-09T04:05:56.039Z,959.84
2018-10-09T04:06:56.030Z,959.79
2018-10-09T04:07:56.019Z,959.8
2018-10-09T04:08:56.041Z,959.74
2018-10-09T04:09:55.996Z,959.74
2018-10-09T04:10:55.986Z,959.76
2018-10-09T04:11:55.975Z,959.7
2018-10-09T04:12:55.964Z,959.71
2018-10-09T04:13:55.953Z,959.73
2018-10-09T04:14:55.942Z,959.7
2018-10-09T04:15:55.933Z,959.72
2018-10-09T04:16:55.922Z,959.69
2018-10-09T04:17:55.912Z,959.72
2018-10-09T04:18:55.900Z,959.76
2018-10-09T04:19:55.890Z,959.72
2018-10-09T04:20:55.878Z,959.73
2018-10-09T04:21:55.868Z,959.74
2018-10-09T04:22:55.855Z,959.73
2018-10-09T04:23:55.851Z,959.76
2018-10-09T04:24:55.834Z,959.75
2018-10-09T04:25:55.824Z,959.76
2018-10-09T04:26:55.813Z,959.78
2018-10-09T04:27:55.801Z,959.75
2018-10-09T04:28:55.794Z,959.75
2018-10-09T04:29:55.779Z,959.79
2018-10-09T04:30:55.767Z,959.78
2018-10-09T04:31:55.760Z,959.73
2018-10-09T04:32:55.749Z,959.76
2018-10-09T04:33:55.734Z,959.74
2018-10-09T04:34:55.724Z,959.69
2018-10-09T04:35:55.720Z,959.73
2018-10-09T04:36:55.703Z,959.73
2018-10-09T04:37:55.692Z,959.7
2018-10-09T04:38:55.684Z,959.69
2018-10-09T04:39:55.670Z,959.69
2018-10-09T04:40:55.658Z,959.68
2018-10-09T04:41:55.650Z,959.72
2018-10-09T04:42:55.637Z,959.73
2018-10-09T04:43:55.626Z,959.74
2018-10-09T04:44:55.614Z,959.75
2018-10-09T04:45:55.604Z,959.76
2018-10-09T04:46:55.592Z,959.75
2018-10-09T04:47:55.581Z,959.77
2018-10-09T04:48:55.571Z,959.77
2018-10-09T04:49:55.563Z,959.83
2018-10-09T04:50:55.548Z,959.77
2018-10-09T04:51:55.537Z,959.76
2018-10-09T04:52:55.590Z,959.74
2018-10-09T04:53:55.516Z,959.74
2018-10-09T04:54:55.504Z,959.73
2018-10-09T04:55:55.493Z,959.74
2018-10-09T04:56:55.483Z,959.74
2018-10-09T04:57:55.472Z,959.77
2018-10-09T04:58:55.459Z,959.81
2018-10-09T04:59:55.451Z,959.74
2018-10-09T05:00:55.447Z,959.82
2018-10-09T05:01:55.425Z,959.82
2018-10-09T05:02:55.415Z,959.75
2018-10-09T05:03:55.411Z,959.79
2018-10-09T05:04:55.393Z,959.79
2018-10-09T05:05:55.382Z,959.8
2018-10-09T05:06:55.371Z,959.79
2018-10-09T05:07:55.360Z,959.8
2018-10-09T05:08:55.349Z,959.81
2018-10-09T05:09:55.337Z,959.81
2018-10-09T05:10:55.327Z,959.82
2018-10-09T05:11:55.318Z,959.79
2018-10-09T05:12:55.305Z,959.8
2018-10-09T05:13:55.293Z,959.81
2018-10-09T05:14:55.282Z,959.82
2018-10-09T05:15:55.271Z,959.82
2018-10-09T05:16:55.260Z,959.87
2018-10-09T05:17:55.318Z,959.87
2018-10-09T05:18:55.237Z,959.89
2018-10-09T05:19:55.225Z,959.89
2018-10-09T05:20:55.214Z,959.88
2018-10-09T05:21:55.204Z,959.9
2018-10-09T05:22:55.193Z,959.91
2018-10-09T05:23:55.185Z,959.91
2018-10-09T05:24:55.172Z,959.91
2018-10-09T05:25:55.167Z,959.91
2018-10-09T05:26:55.149Z,959.91
2018-10-09T05:27:55.148Z,959.88
2018-10-09T05:28:55.126Z,959.88
2018-10-09T05:29:55.115Z,959.91
2018-10-09T05:30:55.113Z,959.89
2018-10-09T05:31:55.096Z,959.88
2018-10-09T05:32:55.082Z,959.88
2018-10-09T05:33:55.077Z,959.88
2018-10-09T05:34:55.060Z,959.88
2018-10-09T05:35:55.048Z,959.92
2018-10-09T05:36:55.037Z,959.89
2018-10-09T05:37:55.027Z,959.92
2018-10-09T05:38:55.015Z,959.95
2018-10-09T05:39:55.003Z,959.96
2018-10-09T05:40:54.992Z,960
2018-10-09T05:41:54.981Z,959.99
2018-10-09T05:42:54.969Z,959.97
2018-10-09T05:43:54.958Z,960.01
2018-10-09T05:44:54.947Z,960
2018-10-09T05:45:54.937Z,960.03
2018-10-09T05:46:54.926Z,960
2018-10-09T05:47:54.914Z,960.01
2018-10-09T05:48:54.902Z,960
2018-10-09T05:49:54.892Z,960
2018-10-09T05:50:54.882Z,960.02
2018-10-09T05:51:54.872Z,959.99
2018-10-09T05:52:54.860Z,960.04
2018-10-09T05:53:54.848Z,960.04
2018-10-09T05:54:54.838Z,960.03
2018-10-09T05:55:54.825Z,960.06
2018-10-09T05:56:54.818Z,960.08
2018-10-09T05:57:54.840Z,960.07
2018-10-09T05:58:54.796Z,960.01
2018-10-09T05:59:54.782Z,960.07
2018-10-09T06:00:54.770Z,960.07
2018-10-09T06:01:54.765Z,960.08
2018-10-09T06:02:54.749Z,960.12
2018-10-09T06:03:54.737Z,960.09
2018-10-09T06:04:54.726Z,960.12
2018-10-09T06:05:54.744Z,960.1
2018-10-09T06:06:54.703Z,960.13
2018-10-09T06:07:54.694Z,960.17
2018-10-09T06:08:54.684Z,960.15
2018-10-09T06:09:54.671Z,960.18
2018-10-09T06:10:54.661Z,960.19
2018-10-09T06:11:54.650Z,960.18
2018-10-09T06:12:54.639Z,960.2
2018-10-09T06:13:54.629Z,960.19
2018-10-09T06:14:54.617Z,960.17
2018-10-09T06:15:54.635Z,960.17
2018-10-09T06:16:54.597Z,960.2
2018-10-09T06:17:54.587Z,960.22
2018-10-09T06:18:54.576Z,960.2
2018-10-09T06:19:54.563Z,960.25
2018-10-09T06:20:54.554Z,960.25
2018-10-09T06:21:54.543Z,960.26
2018-10-09T06:22:54.530Z,960.26
2018-10-09T06:23:54.525Z,960.26
2018-10-09T06:24:54.512Z,960.25
2018-10-09T06:25:54.499Z,960.24
2018-10-09T06:26:54.489Z,960.23
2018-10-09T06:27:54.518Z,960.22
2018-10-09T06:28:54.466Z,960.18
2018-10-09T06:29:54.457Z,960.17
2018-10-09T06:30:54.446Z,960.19
2018-10-09T06:31:54.436Z,960.19
2018-10-09T06:32:54.426Z,960.19
2018-10-09T06:33:54.419Z,960.22
2018-10-09T06:34:54.406Z,960.16
2018-10-09T06:35:54.395Z,960.16
2018-10-09T06:36:54.391Z,960.21
2018-10-09T06:37:54.373Z,960.15
2018-10-09T06:38:54.363Z,960.16
2018-10-09T06:39:54.353Z,960.14
2018-10-09T06:40:54.345Z,960.16
2018-10-09T06:41:54.332Z,960.15
2018-10-09T06:42:54.403Z,960.14
2018-10-09T06:43:54.312Z,960.1
2018-10-09T06:44:54.302Z,960.08
2018-10-09T06:45:54.292Z,960.09
2018-10-09T06:46:54.281Z,960.15
2018-10-09T06:47:54.277Z,960.14
2018-10-09T06:48:54.261Z,960.16
2018-10-09T06:49:54.251Z,960.11
2018-10-09T06:50:54.241Z,960.13
2018-10-09T06:51:54.232Z,960.12
2018-10-09T06:52:54.221Z,960.14
2018-10-09T06:53:54.443Z,960.11
2018-10-09T06:54:54.318Z,960.15
2018-10-09T06:55:54.196Z,960.09
2018-10-09T06:56:54.185Z,960.11
2018-10-09T06:57:54.173Z,960.07
2018-10-09T06:58:54.164Z,960.07
2018-10-09T06:59:54.155Z,960.1
2018-10-09T07:00:54.149Z,960.08
2018-10-09T07:01:54.137Z,960.05
2018-10-09T07:02:54.127Z,960.08
2018-10-09T07:03:54.118Z,960.09
2018-10-09T07:04:54.108Z,960.09
2018-10-09T07:05:54.100Z,960.11
2018-10-09T07:06:54.089Z,960.12
2018-10-09T07:07:54.083Z,960.16
2018-10-09T07:08:54.071Z,960.18
2018-10-09T07:09:54.063Z,960.2
2018-10-09T07:10:54.057Z,960.24
2018-10-09T07:11:54.045Z,960.26
2018-10-09T07:12:54.035Z,960.34
2018-10-09T07:13:54.027Z,960.34
2018-10-09T07:14:54.017Z,960.38
2018-10-09T07:15:54.010Z,960.4
2018-10-09T07:16:54.059Z,960.46
2018-10-09T07:17:53.990Z,960.48
2018-10-09T07:18:53.983Z,960.54
2018-10-09T07:19:53.974Z,960.56
2018-10-09T07:20:53.970Z,960.6
2018-10-09T07:21:53.955Z,960.61
2018-10-09T07:22:53.952Z,960.7
2018-10-09T07:23:53.944Z,960.68
2018-10-09T07:24:53.932Z,960.67
2018-10-09T07:25:53.925Z,960.72
2018-10-09T07:26:53.916Z,960.72
2018-10-09T07:27:53.962Z,960.74
2018-10-09T07:28:53.898Z,960.75
2018-10-09T07:29:53.891Z,960.79
2018-10-09T07:30:53.883Z,960.82
2018-10-09T07:31:53.877Z,960.84
2018-10-09T07:32:53.867Z,960.88
2018-10-09T07:33:53.860Z,960.9
2018-10-09T07:34:53.851Z,960.9
2018-10-09T07:35:53.843Z,960.93
2018-10-09T07:36:53.836Z,960.95
2018-10-09T07:37:53.828Z,960.95
2018-10-09T07:38:53.821Z,960.98
2018-10-09T07:39:53.814Z,961
2018-10-09T07:40:53.805Z,961.03
2018-10-09T07:41:53.800Z,961.05
2018-10-09T07:42:53.795Z,961.06
2018-10-09T07:43:53.800Z,961.1
2018-10-09T07:44:53.777Z,961.12
2018-10-09T07:45:53.771Z,961.11
2018-10-09T07:46:53.761Z,961.06
2018-10-09T07:47:53.754Z,961.07
2018-10-09T07:48:53.749Z,961.11
2018-10-09T07:49:53.741Z,961.05
2018-10-09T07:50:53.733Z,961.07
2018-10-09T07:51:53.727Z,961.09
2018-10-09T07:52:53.729Z,961.05
2018-10-09T07:53:53.716Z,961.08
2018-10-09T07:54:53.708Z,961.11
2018-10-09T07:55:53.703Z,961.07
2018-10-09T07:56:53.698Z,961.13
2018-10-09T07:57:53.688Z,961.13
2018-10-09T07:58:53.681Z,961.15
2018-10-09T07:59:53.675Z,961.12
2018-10-09T08:00:53.667Z,961.11
2018-10-09T08:01:53.660Z,961.13
2018-10-09T08:02:53.654Z,961.13
2018-10-09T08:03:53.648Z,961.18
2018-10-09T08:04:53.709Z,961.16
2018-10-09T08:05:53.633Z,961.2
2018-10-09T08:06:53.629Z,961.19
2018-10-09T08:07:53.622Z,961.24
2018-10-09T08:08:53.614Z,961.23
2018-10-09T08:09:53.608Z,961.24
2018-10-09T08:10:53.668Z,961.23
2018-10-09T08:11:53.597Z,961.24
2018-10-09T08:12:53.588Z,961.26
2018-10-09T08:13:53.582Z,961.26
2018-10-09T08:14:53.579Z,961.3
2018-10-09T08:15:53.572Z,961.31
2018-10-09T08:16:53.564Z,961.34
2018-10-09T08:17:53.558Z,961.34
2018-10-09T08:18:53.551Z,961.32
2018-10-09T08:19:53.546Z,961.33
2018-10-09T08:20:53.543Z,961.33
2018-10-09T08:21:53.533Z,961.31
2018-10-09T08:22:53.543Z,961.33
2018-10-09T08:23:53.527Z,961.3
2018-10-09T08:24:53.514Z,961.33
2018-10-09T08:25:53.508Z,961.31
2018-10-09T08:26:53.504Z,961.36
2018-10-09T08:27:53.563Z,961.31
2018-10-09T08:28:53.490Z,961.39
2018-10-09T08:29:53.486Z,961.33
2018-10-09T08:30:53.480Z,961.36
2018-10-09T08:31:53.474Z,961.33
2018-10-09T08:32:53.467Z,961.32
2018-10-09T08:33:53.462Z,961.31
2018-10-09T08:34:53.455Z,961.33
2018-10-09T08:35:53.450Z,961.33
2018-10-09T08:36:53.448Z,961.36
2018-10-09T08:37:53.440Z,961.33
2018-10-09T08:38:53.432Z,961.31
2018-10-09T08:39:53.429Z,961.31
2018-10-09T08:40:53.424Z,961.33
2018-10-09T08:41:53.418Z,961.31
2018-10-09T08:42:53.412Z,961.31
2018-10-09T08:43:53.408Z,961.26
2018-10-09T08:44:53.401Z,961.25
2018-10-09T08:45:53.397Z,961.28
2018-10-09T08:46:53.392Z,961.27
2018-10-09T08:47:53.390Z,961.24
2018-10-09T08:48:53.382Z,961.2
2018-10-09T08:49:53.376Z,961.22
2018-10-09T08:50:53.372Z,961.19
2018-10-09T08:51:53.422Z,961.22
2018-10-09T08:52:53.363Z,961.2
2018-10-09T08:53:53.358Z,961.21
2018-10-09T08:54:53.354Z,961.21
2018-10-09T08:55:53.350Z,961.19
2018-10-09T08:56:53.344Z,961.19
2018-10-09T08:57:53.339Z,961.21
2018-10-09T08:58:53.335Z,961.17
2018-10-09T08:59:53.331Z,961.23
2018-10-09T09:00:53.336Z,961.24
2018-10-09T09:01:53.322Z,961.26
2018-10-09T09:02:53.319Z,961.22
2018-10-09T09:03:53.313Z,961.2
2018-10-09T09:04:53.310Z,961.23
2018-10-09T09:05:53.306Z,961.22
2018-10-09T09:06:53.301Z,961.19
2018-10-09T09:07:53.296Z,961.22
2018-10-09T09:08:53.293Z,961.19
2018-10-09T09:09:53.298Z,961.21
2018-10-09T09:10:53.288Z,961.2
2018-10-09T09:11:53.281Z,961.24
2018-10-09T09:12:53.276Z,961.19
2018-10-09T09:13:53.290Z,961.22
2018-10-09T09:14:53.267Z,961.18
2018-10-09T09:15:53.265Z,961.21
2018-10-09T09:16:53.261Z,961.25
2018-10-09T09:17:53.262Z,961.23
2018-10-09T09:18:53.254Z,961.2
2018-10-09T09:19:53.249Z,961.21
2018-10-09T09:20:53.300Z,961.27
2018-10-09T09:21:53.242Z,961.24
2018-10-09T09:22:53.239Z,961.23
2018-10-09T09:23:53.234Z,961.22
2018-10-09T09:24:53.232Z,961.24
2018-10-09T09:25:53.228Z,961.25
2018-10-09T09:26:53.306Z,961.24
2018-10-09T09:27:53.371Z,961.25
2018-10-09T09:28:53.218Z,961.29
2018-10-09T09:29:53.213Z,961.3
2018-10-09T09:30:53.212Z,961.29
2018-10-09T09:31:53.211Z,961.3
2018-10-09T09:32:53.203Z,961.31
2018-10-09T09:33:53.202Z,961.31
2018-10-09T09:34:53.199Z,961.23
2018-10-09T09:35:53.196Z,961.24
2018-10-09T09:36:53.193Z,961.25
2018-10-09T09:37:53.190Z,961.23
2018-10-09T09:38:53.233Z,961.22
2018-10-09T09:39:53.185Z,961.27
2018-10-09T09:40:53.182Z,961.29
2018-10-09T09:41:53.178Z,961.28
2018-10-09T09:42:53.177Z,961.27
2018-10-09T09:43:53.175Z,961.26
2018-10-09T09:44:53.178Z,961.29
2018-10-09T09:45:53.232Z,961.31
2018-10-09T09:46:53.166Z,961.29
2018-10-09T09:47:53.164Z,961.29
2018-10-09T09:48:53.163Z,961.27
2018-10-09T09:49:53.161Z,961.25
2018-10-09T09:50:53.162Z,961.21
2018-10-09T09:51:53.159Z,961.21
2018-10-09T09:52:53.159Z,961.19
2018-10-09T09:53:53.153Z,961.2
2018-10-09T09:54:53.150Z,961.17
2018-10-09T09:55:53.149Z,961.21
2018-10-09T09:56:53.146Z,961.21
2018-10-09T09:57:53.226Z,961.19
2018-10-09T09:58:53.303Z,961.17
2018-10-09T09:59:53.142Z,961.2
2018-10-09T10:00:53.140Z,961.22
2018-10-09T10:01:53.139Z,961.25
2018-10-09T10:02:53.137Z,961.24
2018-10-09T10:03:53.138Z,961.29
2018-10-09T10:04:53.135Z,961.29
2018-10-09T10:05:53.137Z,961.27
2018-10-09T10:06:53.133Z,961.35
2018-10-09T10:07:53.132Z,961.34
2018-10-09T10:08:53.129Z,961.35
2018-10-09T10:09:53.127Z,961.33
2018-10-09T10:10:53.125Z,961.37
2018-10-09T10:11:53.126Z,961.32
2018-10-09T10:12:53.124Z,961.35
2018-10-09T10:13:53.125Z,961.32
2018-10-09T10:14:53.122Z,961.32
2018-10-09T10:15:53.158Z,961.3
2018-10-09T10:16:53.119Z,961.32
2018-10-09T10:17:53.118Z,961.31
2018-10-09T10:18:53.117Z,961.31
2018-10-09T10:19:53.115Z,961.34
2018-10-09T10:20:53.113Z,961.3
2018-10-09T10:21:53.114Z,961.37
2018-10-09T10:22:53.112Z,961.34
2018-10-09T10:23:53.111Z,961.34
2018-10-09T10:24:53.111Z,961.34
2018-10-09T10:25:53.109Z,961.35
2018-10-09T10:26:53.108Z,961.33
2018-10-09T10:27:53.107Z,961.35
2018-10-09T10:28:53.108Z,961.34
2018-10-09T10:29:53.104Z,961.34
2018-10-09T10:30:53.104Z,961.34
2018-10-09T10:31:53.102Z,961.36
2018-10-09T10:32:53.102Z,961.31
2018-10-09T10:33:53.101Z,961.3
2018-10-09T10:34:53.100Z,961.33
2018-10-09T10:35:53.100Z,961.28
2018-10-09T10:36:53.099Z,961.31
2018-10-09T10:37:53.097Z,961.3
2018-10-09T10:38:53.096Z,961.31
2018-10-09T10:39:53.095Z,961.34
2018-10-09T10:40:53.095Z,961.33
2018-10-09T10:41:53.095Z,961.32
2018-10-09T10:42:53.093Z,961.36
2018-10-09T10:43:53.091Z,961.34
2018-10-09T10:44:53.094Z,961.33
2018-10-09T10:45:53.089Z,961.35
2018-10-09T10:46:53.087Z,961.29
2018-10-09T10:47:53.088Z,961.3
2018-10-09T10:48:53.122Z,961.31
2018-10-09T10:49:53.084Z,961.28
2018-10-09T10:50:53.084Z,961.31
2018-10-09T10:51:53.083Z,961.3
2018-10-09T10:52:53.082Z,961.29
2018-10-09T10:53:53.079Z,961.26
2018-10-09T10:54:53.131Z,961.26
2018-10-09T10:55:53.077Z,961.21
2018-10-09T10:56:53.078Z,961.21
2018-10-09T10:57:53.076Z,961.19
2018-10-09T10:58:53.074Z,961.14
2018-10-09T10:59:53.072Z,961.19
2018-10-09T11:00:53.071Z,961.2
2018-10-09T11:01:53.171Z,961.18
2018-10-09T11:02:53.067Z,961.22
2018-10-09T11:03:53.066Z,961.17
2018-10-09T11:04:53.074Z,961.17
2018-10-09T11:05:53.062Z,961.16
2018-10-09T11:06:53.061Z,961.12
2018-10-09T11:07:53.104Z,961.13
2018-10-09T11:08:53.058Z,961.14
2018-10-09T11:09:53.058Z,961.13
2018-10-09T11:10:53.057Z,961.13
2018-10-09T11:11:53.052Z,961.14
2018-10-09T11:12:53.051Z,961.13
2018-10-09T11:13:53.053Z,961.15
2018-10-09T11:14:53.049Z,961.12
2018-10-09T11:15:53.045Z,961.19
2018-10-09T11:16:53.043Z,961.16
2018-10-09T11:17:53.042Z,961.14
2018-10-09T11:18:53.040Z,961.14
2018-10-09T11:19:53.042Z,961.15
2018-10-09T11:20:53.037Z,961.15
2018-10-09T11:21:53.039Z,961.13
2018-10-09T11:22:53.032Z,961.12
2018-10-09T11:23:53.032Z,961.11
2018-10-09T11:24:53.030Z,961.1
2018-10-09T11:25:53.027Z,961.11
2018-10-09T11:26:53.024Z,961.1
2018-10-09T11:27:53.024Z,961.12
2018-10-09T11:28:53.021Z,961.12
2018-10-09T11:29:53.025Z,961.12
2018-10-09T11:30:53.017Z,961.14
2018-10-09T11:31:53.016Z,961.12
2018-10-09T11:32:53.015Z,961.18
2018-10-09T11:33:53.012Z,961.1
2018-10-09T11:34:53.010Z,961.13
2018-10-09T11:35:53.008Z,961.13
2018-10-09T11:36:53.006Z,961.1
2018-10-09T11:37:53.004Z,961.11
2018-10-09T11:38:53.002Z,961.08
2018-10-09T11:39:53.000Z,961.11
2018-10-09T11:40:52.999Z,961.12
2018-10-09T11:41:52.997Z,961.13
2018-10-09T11:42:53.049Z,961.09
2018-10-09T11:43:52.996Z,961.1
2018-10-09T11:44:52.993Z,961.07
2018-10-09T11:45:52.989Z,961.08
2018-10-09T11:46:52.988Z,961.05
2018-10-09T11:47:52.987Z,961.06
2018-10-09T11:48:52.983Z,961.07
2018-10-09T11:49:52.984Z,961.05
2018-10-09T11:50:52.986Z,961.06
2018-10-09T11:51:52.980Z,961.07
2018-10-09T11:52:52.978Z,961.03
2018-10-09T11:53:52.976Z,961.04
2018-10-09T11:54:52.975Z,961.03
2018-10-09T11:55:52.972Z,961.02
2018-10-09T11:56:52.970Z,961.03
2018-10-09T11:57:52.971Z,960.98
2018-10-09T11:58:53.029Z,960.97
2018-10-09T11:59:52.967Z,960.93
2018-10-09T12:00:52.965Z,960.93
2018-10-09T12:01:52.964Z,960.93
2018-10-09T12:02:53.030Z,960.93
2018-10-09T12:03:52.959Z,960.91
2018-10-09T12:04:52.961Z,960.9
2018-10-09T12:05:53.016Z,960.9
2018-10-09T12:06:52.956Z,960.9
2018-10-09T12:07:52.953Z,960.89
2018-10-09T12:08:52.952Z,960.83
2018-10-09T12:09:52.950Z,960.88
2018-10-09T12:10:52.956Z,960.89
2018-10-09T12:11:52.948Z,960.87
2018-10-09T12:12:52.948Z,960.85
2018-10-09T12:13:52.945Z,960.86
2018-10-09T12:14:52.943Z,960.85
2018-10-09T12:15:52.999Z,960.79
2018-10-09T12:16:52.943Z,960.82
2018-10-09T12:17:52.939Z,960.78
2018-10-09T12:18:52.938Z,960.77
2018-10-09T12:19:52.936Z,960.73
2018-10-09T12:20:52.934Z,960.74
2018-10-09T12:21:52.933Z,960.71
2018-10-09T12:22:52.931Z,960.69
2018-10-09T12:23:52.929Z,960.71
2018-10-09T12:24:52.928Z,960.71
2018-10-09T12:25:52.925Z,960.74
2018-10-09T12:26:52.947Z,960.73
2018-10-09T12:27:52.923Z,960.74
2018-10-09T12:28:52.920Z,960.71
2018-10-09T12:29:52.918Z,960.7
2018-10-09T12:30:52.922Z,960.68
2018-10-09T12:31:52.915Z,960.65